createdAt,value
2022-12-03T00:00:43.523Z,5.27
2022-12-03T00:03:12.170Z,4.99
2022-12-03T00:05:48.308Z,5.59
2022-12-03T00:08:17.444Z,5.54
2022-12-03T00:10:46.142Z,5.16
2022-12-03T00:13:14.503Z,5.32
2022-12-03T00:15:42.934Z,5.64
2022-12-03T00:18:11.355Z,5.24
2022-12-03T00:20:39.772Z,5.05
2022-12-03T00:23:09.169Z,5.44
2022-12-03T00:25:37.577Z,5.21
2022-12-03T00:28:05.957Z,5.36
2022-12-03T00:30:34.357Z,5.68
2022-12-03T00:33:02.880Z,5.28
2022-12-03T00:35:31.285Z,4.97
2022-12-03T00:37:59.687Z,4.90
2022-12-03T00:40:28.311Z,5.39
2022-12-03T00:42:56.841Z,5.68
2022-12-03T00:45:25.162Z,5.80
2022-12-03T00:47:53.749Z,4.96
2022-12-03T00:50:22.147Z,4.86
2022-12-03T00:52:51.658Z,5.40
2022-12-03T00:55:20.056Z,4.86
2022-12-03T00:57:48.569Z,5.38
2022-12-03T01:00:17.691Z,5.03
2022-12-03T01:02:46.069Z,5.36
2022-12-03T01:05:14.489Z,5.65
2022-12-03T01:07:43.040Z,5.80
2022-12-03T01:10:12.623Z,5.58
2022-12-03T01:12:41.166Z,5.25
2022-12-03T01:15:10.616Z,5.60
2022-12-03T01:17:39.175Z,5.28
2022-12-03T01:20:09.382Z,5.32
2022-12-03T01:22:37.854Z,5.34
2022-12-03T01:25:06.784Z,5.39
2022-12-03T01:27:35.296Z,5.06
2022-12-03T01:30:05.096Z,5.38
2022-12-03T01:32:33.524Z,5.72
2022-12-03T01:35:02.039Z,5.69
2022-12-03T01:37:30.600Z,5.87
2022-12-03T01:39:59.054Z,4.94
2022-12-03T01:42:31.534Z,5.23
2022-12-03T01:45:01.386Z,5.23
2022-12-03T01:47:35.212Z,5.62
2022-12-03T01:50:08.437Z,5.04
2022-12-03T01:52:39.182Z,4.80
2022-12-03T01:55:13.672Z,5.28
2022-12-03T01:57:47.407Z,4.82
2022-12-03T02:00:18.536Z,5.45
2022-12-03T02:02:49.884Z,5.16
2022-12-03T02:05:22.335Z,5.41
2022-12-03T02:07:50.859Z,5.24
2022-12-03T02:10:25.381Z,5.53
2022-12-03T02:13:01.487Z,5.72
2022-12-03T02:15:30.052Z,6.10
2022-12-03T02:17:59.695Z,6.02
2022-12-03T02:20:28.207Z,5.29
2022-12-03T02:23:10.697Z,5.68
2022-12-03T02:25:39.500Z,5.08
2022-12-03T02:28:09.655Z,5.62
2022-12-03T02:30:38.247Z,5.35
2022-12-03T02:33:06.817Z,4.90
2022-12-03T02:35:37.340Z,5.40
2022-12-03T02:38:08.497Z,5.61
2022-12-03T02:40:37.370Z,5.37
2022-12-03T02:43:06.096Z,5.18
2022-12-03T02:45:39.455Z,5.58
2022-12-03T02:48:25.515Z,5.50
2022-12-03T02:50:57.325Z,5.20
2022-12-03T02:53:36.277Z,5.24
2022-12-03T02:56:06.144Z,5.19
2022-12-03T02:58:35.196Z,5.71
2022-12-03T03:01:05.084Z,5.94
2022-12-03T03:03:34.539Z,5.33
2022-12-03T03:06:06.123Z,5.25
2022-12-03T03:08:35.434Z,5.59
2022-12-03T03:11:04.338Z,5.05
2022-12-03T03:13:33.924Z,5.54
2022-12-03T03:16:04.452Z,5.86
2022-12-03T03:18:34.305Z,5.36
2022-12-03T03:21:04.086Z,5.44
2022-12-03T03:23:32.571Z,5.79
2022-12-03T03:26:06.057Z,6.22
2022-12-03T03:28:37.855Z,5.65
2022-12-03T03:31:08.340Z,5.60
2022-12-03T03:33:39.229Z,5.76
2022-12-03T03:36:08.599Z,5.40
2022-12-03T03:38:38.473Z,5.11
2022-12-03T03:41:09.210Z,4.91
2022-12-03T03:43:39.303Z,5.37
2022-12-03T03:46:08.259Z,5.78
2022-12-03T03:48:37.017Z,5.19
2022-12-03T03:51:09.324Z,5.46
2022-12-03T03:53:44.848Z,5.63
2022-12-03T03:56:15.591Z,5.34
2022-12-03T03:58:44.006Z,5.41
2022-12-03T04:01:14.081Z,5.72
2022-12-03T04:03:42.636Z,5.35
2022-12-03T04:06:11.315Z,5.70
2022-12-03T04:08:39.717Z,5.95
2022-12-03T04:11:26.868Z,5.46
2022-12-03T04:13:55.333Z,5.55
2022-12-03T04:16:23.819Z,5.27
2022-12-03T04:18:52.321Z,5.06
2022-12-03T04:21:41.878Z,5.36
2022-12-03T04:24:11.260Z,5.38
2022-12-03T04:26:58.291Z,5.56
2022-12-03T04:29:26.796Z,5.53
2022-12-03T04:32:13.860Z,5.36
2022-12-03T04:35:00.605Z,5.65
2022-12-03T04:37:29.060Z,5.44
2022-12-03T04:39:57.498Z,5.75
2022-12-03T04:42:26.017Z,5.80
2022-12-03T04:44:54.593Z,5.79
2022-12-03T04:47:23.246Z,5.61
2022-12-03T04:49:51.884Z,5.91
2022-12-03T04:52:20.877Z,5.94
2022-12-03T04:54:49.312Z,5.55
2022-12-03T04:57:17.737Z,5.57
2022-12-03T04:59:46.258Z,5.52
2022-12-03T05:02:14.737Z,5.54
2022-12-03T05:04:44.139Z,5.53
2022-12-03T05:07:12.494Z,5.49
2022-12-03T05:09:40.910Z,5.54
2022-12-03T05:12:09.358Z,5.43
2022-12-03T05:14:37.778Z,5.27
2022-12-03T05:17:06.345Z,5.53
2022-12-03T05:19:53.448Z,5.54
2022-12-03T05:22:21.838Z,5.72
2022-12-03T05:24:50.283Z,5.46
2022-12-03T05:27:23.405Z,5.67
2022-12-03T05:29:53.195Z,5.70
2022-12-03T05:32:21.782Z,5.80
2022-12-03T05:34:50.164Z,6.06
2022-12-03T05:37:18.545Z,5.57
2022-12-03T05:39:46.874Z,5.59
2022-12-03T05:42:34.049Z,5.84
2022-12-03T05:45:03.791Z,5.74
2022-12-03T05:47:33.192Z,5.89
2022-12-03T05:50:01.879Z,5.33
2022-12-03T05:52:30.295Z,5.43
2022-12-03T05:54:58.707Z,5.45
2022-12-03T05:57:27.116Z,5.32
2022-12-03T05:59:55.537Z,4.58
2022-12-03T06:02:24.070Z,5.09
2022-12-03T06:04:52.975Z,5.56
2022-12-03T06:07:21.520Z,5.74
2022-12-03T06:09:50.060Z,5.33
2022-12-03T06:12:18.410Z,5.58
2022-12-03T06:14:46.780Z,5.45
2022-12-03T06:17:15.253Z,5.78
2022-12-03T06:19:43.656Z,5.78
2022-12-03T06:22:12.368Z,5.94
2022-12-03T06:24:40.782Z,5.10
2022-12-03T06:27:09.407Z,5.47
2022-12-03T06:29:38.309Z,5.76
2022-12-03T06:32:07.993Z,5.68
2022-12-03T06:34:36.571Z,5.72
2022-12-03T06:37:04.969Z,4.89
2022-12-03T06:39:33.462Z,4.66
2022-12-03T06:42:02.021Z,5.10
2022-12-03T06:44:30.350Z,5.49
2022-12-03T06:46:58.879Z,5.43
2022-12-03T06:49:27.315Z,5.15
2022-12-03T06:51:56.071Z,4.84
2022-12-03T06:54:24.575Z,4.94
2022-12-03T06:56:53.104Z,5.24
2022-12-03T06:59:21.480Z,5.61
2022-12-03T07:01:49.879Z,5.71
2022-12-03T07:04:18.364Z,5.48
2022-12-03T07:06:46.774Z,4.83
2022-12-03T07:09:16.980Z,4.74
2022-12-03T07:11:46.466Z,5.13
2022-12-03T07:14:14.967Z,4.82
2022-12-03T07:16:43.772Z,4.95
2022-12-03T07:19:13.796Z,5.36
2022-12-03T07:21:42.212Z,5.75
2022-12-03T07:24:10.743Z,5.86
2022-12-03T07:26:39.178Z,5.39
2022-12-03T07:29:07.550Z,5.09
2022-12-03T07:31:36.443Z,5.07
2022-12-03T07:34:04.854Z,5.40
2022-12-03T07:36:33.266Z,5.47
2022-12-03T07:39:01.832Z,5.21
2022-12-03T07:41:31.009Z,5.39
2022-12-03T07:43:59.439Z,5.21
2022-12-03T07:46:28.249Z,5.31
2022-12-03T07:48:56.623Z,5.82
2022-12-03T07:51:30.468Z,5.51
2022-12-03T07:54:00.445Z,5.56
2022-12-03T07:56:28.996Z,5.65
2022-12-03T07:58:58.185Z,5.71
2022-12-03T08:01:26.774Z,5.32
2022-12-03T08:03:55.360Z,5.73
2022-12-03T08:06:23.723Z,5.50
2022-12-03T08:08:52.194Z,5.67
2022-12-03T08:11:20.719Z,5.98
2022-12-03T08:13:49.252Z,5.91
2022-12-03T08:16:20.772Z,5.84
2022-12-03T08:18:50.974Z,5.61
2022-12-03T08:21:21.179Z,5.68
2022-12-03T08:23:49.571Z,6.07
2022-12-03T08:26:25.558Z,6.05
2022-12-03T08:28:54.672Z,5.76
2022-12-03T08:31:32.507Z,5.70
2022-12-03T08:34:26.341Z,5.52
2022-12-03T08:37:13.885Z,5.60
2022-12-03T08:39:50.709Z,5.50
2022-12-03T08:42:41.822Z,5.37
2022-12-03T08:45:35.254Z,5.26
2022-12-03T08:48:18.650Z,5.63
2022-12-03T08:50:47.095Z,5.85
2022-12-03T08:53:30.448Z,5.19
2022-12-03T08:56:01.427Z,5.57
2022-12-03T08:58:46.246Z,6.03
2022-12-03T09:01:14.900Z,5.76
2022-12-03T09:03:52.151Z,5.98
2022-12-03T09:06:21.863Z,6.13
2022-12-03T09:08:50.235Z,6.05
2022-12-03T09:11:18.814Z,5.29
2022-12-03T09:13:47.226Z,5.65
2022-12-03T09:16:15.743Z,6.03
2022-12-03T09:18:45.291Z,5.97
2022-12-03T09:21:13.682Z,5.72
2022-12-03T09:23:42.157Z,5.43
2022-12-03T09:26:10.622Z,5.67
2022-12-03T09:28:40.119Z,5.76
2022-12-03T09:31:08.604Z,6.09
2022-12-03T09:33:37.118Z,6.12
2022-12-03T09:36:06.721Z,5.90
2022-12-03T09:38:36.238Z,5.24
2022-12-03T09:41:04.972Z,5.59
2022-12-03T09:44:02.661Z,5.99
2022-12-03T09:46:22.892Z,6.00
2022-12-03T09:48:51.278Z,5.68
2022-12-03T09:51:21.025Z,5.89
2022-12-03T09:53:49.433Z,5.68
2022-12-03T09:56:22.170Z,5.56
2022-12-03T09:58:50.693Z,5.79
2022-12-03T10:01:19.200Z,5.58
2022-12-03T10:03:50.052Z,5.64
2022-12-03T10:06:21.579Z,5.62
2022-12-03T10:08:53.464Z,5.71
2022-12-03T10:11:24.984Z,5.91
2022-12-03T10:13:56.239Z,5.91
2022-12-03T10:16:25.808Z,5.95
2022-12-03T10:18:57.018Z,5.82
2022-12-03T10:21:34.600Z,5.76
2022-12-03T10:24:20.998Z,5.72
2022-12-03T10:26:52.982Z,5.99
2022-12-03T10:29:34.560Z,5.93
2022-12-03T10:32:09.973Z,5.83
2022-12-03T10:34:41.028Z,5.49
2022-12-03T10:37:17.189Z,5.78
2022-12-03T10:40:00.743Z,6.01
2022-12-03T10:42:32.410Z,5.38
2022-12-03T10:45:24.850Z,5.45
2022-12-03T10:48:05.934Z,5.70
2022-12-03T10:50:35.796Z,5.90
2022-12-03T10:53:04.867Z,6.26
2022-12-03T10:55:41.143Z,6.08
2022-12-03T10:58:31.384Z,5.63
2022-12-03T11:01:03.411Z,5.68
2022-12-03T11:03:36.280Z,5.98
2022-12-03T11:06:05.149Z,6.11
2022-12-03T11:08:36.320Z,5.71
2022-12-03T11:11:17.031Z,5.11
2022-12-03T11:13:53.075Z,5.76
2022-12-03T11:16:39.920Z,6.07
2022-12-03T11:19:36.488Z,6.15
2022-12-03T11:22:04.880Z,6.06
2022-12-03T11:24:35.899Z,6.17
2022-12-03T11:27:04.283Z,6.37
2022-12-03T11:29:46.629Z,6.28
2022-12-03T11:32:34.138Z,5.95
2022-12-03T11:35:02.561Z,5.69
2022-12-03T11:37:31.240Z,5.98
2022-12-03T11:40:39.090Z,5.85
2022-12-03T11:43:09.923Z,5.98
2022-12-03T11:45:38.776Z,5.51
2022-12-03T11:48:13.784Z,5.51
2022-12-03T11:50:45.188Z,6.02
2022-12-03T11:53:16.113Z,5.87
2022-12-03T11:55:51.914Z,5.96
2022-12-03T11:58:30.176Z,6.29
2022-12-03T12:01:00.399Z,6.05
2022-12-03T12:03:42.043Z,6.13
2022-12-03T12:06:17.068Z,5.86
2022-12-03T12:08:51.715Z,5.92
2022-12-03T12:11:30.382Z,5.80
2022-12-03T12:13:59.914Z,5.81
2022-12-03T12:16:53.686Z,5.59
2022-12-03T12:19:40.077Z,5.65
2022-12-03T12:22:17.626Z,5.65
2022-12-03T12:24:51.452Z,5.21
2022-12-03T12:27:39.273Z,5.47
2022-12-03T12:30:17.482Z,5.82
2022-12-03T12:33:04.143Z,5.73
2022-12-03T12:35:33.065Z,5.83
2022-12-03T12:38:20.065Z,5.99
2022-12-03T12:40:53.173Z,6.13
2022-12-03T12:43:27.695Z,5.89
2022-12-03T12:46:46.541Z,5.91
2022-12-03T12:49:26.370Z,6.16
2022-12-03T12:51:58.785Z,6.12
2022-12-03T12:54:35.255Z,6.07
2022-12-03T12:57:19.815Z,6.36
2022-12-03T12:59:52.486Z,6.06
2022-12-03T13:03:04.692Z,6.17
2022-12-03T13:05:45.391Z,5.87
2022-12-03T13:08:39.657Z,5.74
2022-12-03T13:11:51.862Z,6.20
2022-12-03T13:14:26.174Z,5.41
2022-12-03T13:17:00.008Z,5.19
2022-12-03T13:19:39.640Z,5.10
2022-12-03T13:22:23.251Z,4.91
2022-12-03T13:24:59.631Z,5.07
2022-12-03T13:27:30.178Z,5.06
2022-12-03T13:30:10.257Z,5.31
2022-12-03T13:32:44.362Z,5.67
2022-12-03T13:35:28.245Z,5.82
2022-12-03T13:37:59.296Z,6.09
2022-12-03T13:40:36.495Z,5.43
2022-12-03T13:43:19.114Z,5.56
2022-12-03T13:45:55.257Z,5.44
2022-12-03T13:48:42.852Z,5.38
2022-12-03T13:51:33.401Z,5.05
2022-12-03T13:54:14.383Z,4.85
2022-12-03T13:56:57.405Z,5.22
2022-12-03T13:59:30.552Z,5.63
2022-12-03T14:02:05.991Z,5.51
2022-12-03T14:04:37.779Z,5.43
2022-12-03T14:07:14.247Z,5.29
2022-12-03T14:09:51.523Z,5.46
2022-12-03T14:12:34.030Z,5.61
2022-12-03T14:15:05.466Z,6.01
2022-12-03T14:17:34.529Z,5.94
2022-12-03T14:20:06.773Z,5.37
2022-12-03T14:22:41.970Z,5.07
2022-12-03T14:25:15.999Z,5.37
2022-12-03T14:28:08.774Z,5.90
2022-12-03T14:30:39.808Z,5.40
2022-12-03T14:33:08.792Z,5.64
2022-12-03T14:35:37.913Z,4.87
2022-12-03T14:38:06.320Z,5.14
2022-12-03T14:40:34.777Z,5.11
2022-12-03T14:43:03.459Z,5.15
2022-12-03T14:45:32.906Z,5.05
2022-12-03T14:48:01.420Z,5.27
2022-12-03T14:50:30.235Z,5.34
2022-12-03T14:52:58.688Z,5.12
2022-12-03T14:55:27.233Z,4.95
2022-12-03T14:57:55.639Z,4.93
2022-12-03T15:00:24.261Z,5.01
2022-12-03T15:02:52.733Z,5.28
2022-12-03T15:05:27.989Z,5.52
2022-12-03T15:07:58.166Z,5.09
2022-12-03T15:10:26.586Z,5.02
2022-12-03T15:12:54.946Z,5.46
2022-12-03T15:15:24.408Z,5.34
2022-12-03T15:17:52.905Z,5.16
2022-12-03T15:20:21.366Z,5.45
2022-12-03T15:22:50.827Z,5.16
2022-12-03T15:25:25.409Z,5.07
2022-12-03T15:27:53.899Z,5.18
2022-12-03T15:30:22.381Z,5.58
2022-12-03T15:32:50.925Z,5.60
2022-12-03T15:35:20.320Z,5.74
2022-12-03T15:37:48.840Z,5.50
2022-12-03T15:40:17.386Z,5.27
2022-12-03T15:42:45.825Z,5.60
2022-12-03T15:45:15.523Z,5.51
2022-12-03T15:47:44.480Z,5.59
2022-12-03T15:50:14.175Z,5.83
2022-12-03T15:52:42.701Z,5.49
2022-12-03T15:55:11.562Z,5.29
2022-12-03T15:57:40.034Z,5.40
2022-12-03T16:00:10.834Z,5.17
2022-12-03T16:02:40.755Z,5.48
2022-12-03T16:05:11.808Z,4.88
2022-12-03T16:07:40.911Z,5.41
2022-12-03T16:10:10.823Z,5.13
2022-12-03T16:12:39.482Z,5.46
2022-12-03T16:15:08.327Z,5.01
2022-12-03T16:17:36.786Z,5.49
2022-12-03T16:20:06.713Z,5.63
2022-12-03T16:22:35.150Z,4.88
2022-12-03T16:25:05.114Z,5.07
2022-12-03T16:27:33.749Z,4.93
2022-12-03T16:30:02.353Z,5.21
2022-12-03T16:32:30.840Z,5.46
2022-12-03T16:34:59.291Z,5.42
2022-12-03T16:37:27.731Z,5.34
2022-12-03T16:39:56.504Z,4.47
2022-12-03T16:42:27.238Z,4.58
2022-12-03T16:45:22.810Z,4.88
2022-12-03T16:47:51.149Z,4.90
2022-12-03T16:50:25.881Z,4.66
2022-12-03T16:52:58.075Z,4.79
2022-12-03T16:55:26.448Z,4.54
2022-12-03T16:57:54.875Z,4.73
2022-12-03T17:00:23.435Z,5.01
2022-12-03T17:02:51.961Z,5.08
2022-12-03T17:05:20.455Z,5.34
2022-12-03T17:07:49.017Z,5.20
2022-12-03T17:10:17.546Z,5.05
2022-12-03T17:13:08.923Z,4.87
2022-12-03T17:15:34.824Z,5.24
2022-12-03T17:18:06.437Z,5.31
2022-12-03T17:20:35.831Z,4.66
2022-12-03T17:23:04.255Z,5.13
2022-12-03T17:25:34.154Z,4.62
2022-12-03T17:28:02.666Z,4.45
2022-12-03T17:30:31.051Z,4.58
2022-12-03T17:32:59.439Z,4.30
2022-12-03T17:35:28.554Z,4.88
2022-12-03T17:37:57.007Z,4.77
2022-12-03T17:40:25.376Z,4.49
2022-12-03T17:42:53.830Z,4.33
2022-12-03T17:45:22.234Z,4.73
2022-12-03T17:47:50.753Z,4.15
2022-12-03T17:50:19.562Z,3.92
2022-12-03T17:52:48.002Z,4.12
2022-12-03T17:55:26.478Z,4.24
2022-12-03T17:58:02.616Z,4.91
2022-12-03T18:00:31.494Z,4.79
2022-12-03T18:02:59.923Z,4.60
2022-12-03T18:05:28.368Z,4.60
2022-12-03T18:07:56.878Z,4.62
2022-12-03T18:10:25.514Z,4.71
2022-12-03T18:12:58.333Z,4.74
2022-12-03T18:15:31.092Z,4.95
2022-12-03T18:17:59.595Z,4.62
2022-12-03T18:20:28.241Z,4.85
2022-12-03T18:22:58.899Z,5.01
2022-12-03T18:25:28.272Z,4.59
2022-12-03T18:27:57.312Z,4.98
2022-12-03T18:30:25.710Z,4.80
2022-12-03T18:32:54.424Z,5.16
2022-12-03T18:35:22.987Z,5.29
2022-12-03T18:37:51.725Z,4.78
2022-12-03T18:40:23.357Z,4.57
2022-12-03T18:42:51.768Z,4.58
2022-12-03T18:45:20.544Z,4.60
2022-12-03T18:47:49.223Z,4.54
2022-12-03T18:50:17.692Z,4.73
2022-12-03T18:52:46.091Z,4.94
2022-12-03T18:55:19.164Z,4.78
2022-12-03T18:57:47.538Z,4.89
2022-12-03T19:00:17.553Z,4.69
2022-12-03T19:03:03.461Z,5.14
2022-12-03T19:05:34.409Z,4.90
2022-12-03T19:08:03.493Z,4.90
2022-12-03T19:10:32.935Z,4.80
2022-12-03T19:13:01.444Z,5.10
2022-12-03T19:15:30.834Z,4.42
2022-12-03T19:17:59.270Z,4.41
2022-12-03T19:20:28.779Z,4.59
2022-12-03T19:22:57.286Z,4.78
2022-12-03T19:25:25.813Z,5.09
2022-12-03T19:27:55.094Z,5.29
2022-12-03T19:30:23.692Z,5.26
2022-12-03T19:32:52.179Z,5.14
2022-12-03T19:35:24.978Z,5.27
2022-12-03T19:37:53.536Z,5.11
2022-12-03T19:40:22.020Z,4.80
2022-12-03T19:42:50.432Z,4.41
2022-12-03T19:45:18.866Z,4.70
2022-12-03T19:47:47.280Z,4.65
2022-12-03T19:50:22.623Z,4.59
2022-12-03T19:52:51.937Z,4.86
2022-12-03T19:55:20.579Z,4.72
2022-12-03T19:57:49.220Z,4.28
2022-12-03T20:00:17.995Z,4.35
2022-12-03T20:02:49.233Z,4.28
2022-12-03T20:05:17.820Z,4.06
2022-12-03T20:07:46.347Z,4.21
2022-12-03T20:10:14.850Z,4.53
2022-12-03T20:12:43.286Z,4.43
2022-12-03T20:15:13.401Z,4.72
2022-12-03T20:17:41.830Z,4.81
2022-12-03T20:20:10.722Z,4.96
2022-12-03T20:22:39.201Z,4.40
2022-12-03T20:25:08.009Z,4.77
2022-12-03T20:27:36.738Z,4.46
2022-12-03T20:30:05.880Z,4.26
2022-12-03T20:32:37.298Z,4.60
2022-12-03T20:35:09.717Z,4.48
2022-12-03T20:37:38.115Z,4.93
2022-12-03T20:40:07.205Z,5.00
2022-12-03T20:42:35.601Z,4.99
2022-12-03T20:45:04.388Z,4.54
2022-12-03T20:47:32.754Z,4.48
2022-12-03T20:50:01.202Z,4.61
2022-12-03T20:52:29.663Z,3.87
2022-12-03T20:54:58.107Z,4.02
2022-12-03T20:57:26.546Z,4.33
2022-12-03T20:59:56.008Z,4.61
2022-12-03T21:02:24.652Z,4.70
2022-12-03T21:04:53.601Z,4.40
2022-12-03T21:07:22.054Z,4.74
2022-12-03T21:09:50.776Z,4.55
2022-12-03T21:12:19.122Z,4.72
2022-12-03T21:14:47.570Z,4.22
2022-12-03T21:17:16.056Z,4.05
2022-12-03T21:19:46.817Z,4.54
2022-12-03T21:22:15.315Z,4.86
2022-12-03T21:24:44.816Z,5.11
2022-12-03T21:27:17.104Z,4.54
2022-12-03T21:29:49.888Z,4.53
2022-12-03T21:32:18.378Z,4.36
2022-12-03T21:34:46.790Z,4.82
2022-12-03T21:37:15.240Z,5.08
2022-12-03T21:39:43.659Z,4.68
2022-12-03T21:42:36.241Z,4.61
2022-12-03T21:45:00.441Z,4.23
2022-12-03T21:47:33.519Z,4.27
2022-12-03T21:50:07.346Z,3.94
2022-12-03T21:52:35.733Z,4.09
2022-12-03T21:55:04.402Z,4.28
2022-12-03T21:57:35.722Z,4.70
2022-12-03T22:00:08.638Z,4.25
2022-12-03T22:02:39.065Z,4.48
2022-12-03T22:05:09.090Z,4.85
2022-12-03T22:07:38.760Z,4.87
2022-12-03T22:10:09.822Z,4.66
2022-12-03T22:12:40.629Z,4.22
2022-12-03T22:15:16.593Z,4.29
2022-12-03T22:17:47.705Z,4.13
2022-12-03T22:20:16.326Z,4.34
2022-12-03T22:22:44.736Z,4.19
2022-12-03T22:25:13.158Z,4.28
2022-12-03T22:27:41.555Z,4.60
2022-12-03T22:30:10.148Z,4.59
2022-12-03T22:32:38.643Z,4.08
2022-12-03T22:35:07.422Z,4.45
2022-12-03T22:37:35.972Z,4.58
2022-12-03T22:40:05.068Z,4.49
2022-12-03T22:42:33.529Z,4.36
2022-12-03T22:45:01.946Z,4.62
2022-12-03T22:47:31.342Z,4.73
2022-12-03T22:49:59.709Z,4.12
2022-12-03T22:52:28.119Z,4.18
2022-12-03T22:54:56.536Z,4.56
2022-12-03T22:57:24.917Z,4.65
2022-12-03T22:59:53.692Z,4.82
2022-12-03T23:02:22.332Z,5.01
2022-12-03T23:04:50.788Z,4.68
2022-12-03T23:07:19.188Z,4.54
2022-12-03T23:09:48.714Z,3.94
2022-12-03T23:12:17.136Z,3.96
2022-12-03T23:14:45.547Z,4.24
2022-12-03T23:17:13.910Z,4.66
2022-12-03T23:19:42.413Z,4.81
2022-12-03T23:22:10.759Z,4.24
2022-12-03T23:24:40.263Z,4.38
2022-12-03T23:27:08.670Z,4.08
2022-12-03T23:29:37.019Z,4.25
2022-12-03T23:32:05.423Z,4.65
2022-12-03T23:34:33.987Z,4.69
2022-12-03T23:37:02.503Z,4.24
2022-12-03T23:39:30.890Z,4.55
2022-12-03T23:41:59.257Z,4.84
2022-12-03T23:44:28.032Z,4.89
2022-12-03T23:46:56.574Z,4.61
2022-12-03T23:49:25.123Z,4.60
2022-12-03T23:51:53.614Z,4.46
2022-12-03T23:54:22.174Z,4.09
2022-12-03T23:56:50.538Z,3.94
2022-12-03T23:59:18.909Z,4.42
